Terminal Aerodrome Forecast
Issued by NWS Mt. Holly, NJ

Home | Current Version | Previous Version | Text Only | Print | Product List | Glossary On
Versions: 1 2 3 4 5 6 7 8 9 10 11 12 13 14 15 16 17 18 19 20 21 22 23 24 25 26
575
FTUS41 KPHI 251152
TAFPHL
TAF
KPHL 251152Z 2512/2618 16006KT P6SM SCT070 OVC150
     FM251300 21007KT P6SM FEW070 BKN150
     FM251600 25010G19KT P6SM SCT060 BKN200
      TEMPO 2522/2524 5SM -TSRA OVC040CB
     FM260100 28005KT P6SM SCT100=

USA.gov is the U.S. government's official web portal to all federal, state and local government web resources and services.